Time;durP1;ratioP1;P1;durP2;ratioP2;P2;SDS_P1;SDS_P2;PMS_P1;PMS_P2;Temp;Humidity;BMP_temperature;BMP_pressure;BME280_temperature;BME280_humidity;BME280_pressure;Samples;Min_cycle;Max_cycle;Signal;HPM_P1;HPM_P2
2022/06/14 00:00:59;;;;;;;8.45;3.55;;;;;;;15.63;72.89;99450.69;4361518;32;33930;-77
2022/06/14 00:03:34;;;;;;;7.72;4.12;;;;;;;16.05;70.59;99463.44;4361828;32;34880;-83
2022/06/14 00:06:11;;;;;;;7.35;4.18;;;;;;;16.00;70.90;99470.59;4359610;32;34528;-77
2022/06/14 00:08:40;;;;;;;7.43;3.90;;;;;;;16.05;70.65;99471.31;4363121;32;33453;-76
2022/06/14 00:11:13;;;;;;;8.73;4.03;;;;;;;16.11;70.21;99472.00;4361807;32;33908;-77
2022/06/14 00:13:42;;;;;;;8.48;3.83;;;;;;;16.13;70.30;99474.59;4363155;32;35219;-79
2022/06/14 00:16:11;;;;;;;7.05;3.85;;;;;;;15.68;72.54;99478.50;4362824;32;34427;-76
2022/06/14 00:18:39;;;;;;;8.10;3.83;;;;;;;15.23;74.22;99481.56;4362882;32;34281;-77
2022/06/14 00:21:07;;;;;;;5.80;3.83;;;;;;;15.21;74.65;99472.84;4361750;32;33892;-77
2022/06/14 00:23:35;;;;;;;6.85;4.00;;;;;;;15.59;73.17;99478.78;4364001;32;35102;-77
2022/06/14 00:26:04;;;;;;;7.57;3.80;;;;;;;15.92;71.54;99478.72;4361023;32;33775;-77
2022/06/14 00:28:33;;;;;;;5.87;3.90;;;;;;;15.91;71.38;99482.25;4362855;32;33534;-76
2022/06/14 00:31:06;;;;;;;6.15;4.20;;;;;;;15.59;73.34;99484.03;4356525;32;167549;-77
2022/06/14 00:33:34;;;;;;;6.68;4.15;;;;;;;15.45;74.19;99486.19;4360944;32;35904;-77
2022/06/14 00:36:06;;;;;;;8.65;4.75;;;;;;;15.39;74.55;99502.09;4361637;32;34083;-77
2022/06/14 00:38:35;;;;;;;6.55;5.05;;;;;;;15.28;74.81;99498.03;4361545;32;33535;-77
2022/06/14 00:41:05;;;;;;;8.57;4.57;;;;;;;15.02;76.40;99497.84;4361630;32;34787;-77
2022/06/14 00:43:33;;;;;;;6.75;4.70;;;;;;;14.98;76.62;99492.72;4364019;32;35063;-77
2022/06/14 00:46:14;;;;;;;6.93;4.80;;;;;;;14.87;77.18;99507.84;4362381;32;34376;-76
2022/06/14 00:48:46;;;;;;;7.28;4.78;;;;;;;14.77;77.44;99506.34;4359498;32;33585;-86
2022/06/14 00:51:20;;;;;;;6.65;4.65;;;;;;;14.56;78.62;99511.22;4347755;33;34107;-77
2022/06/14 00:53:53;;;;;;;12.63;5.87;;;;;;;14.87;77.32;99515.72;4349087;33;35926;-77
2022/06/14 00:56:31;;;;;;;8.15;4.60;;;;;;;14.89;77.24;99511.28;4357646;32;34959;-78
2022/06/14 00:59:36;;;;;;;6.85;4.15;;;;;;;15.17;75.83;99513.19;4359758;32;33333;-77
2022/06/14 01:02:29;;;;;;;8.30;4.75;;;;;;;14.76;77.15;99520.37;4362364;32;34083;-76
2022/06/14 01:04:59;;;;;;;8.73;4.57;;;;;;;14.64;77.23;99525.91;4360065;32;35038;-77
2022/06/14 01:07:30;;;;;;;7.75;4.65;;;;;;;14.80;77.15;99522.00;4362624;32;34657;-76
2022/06/14 01:10:06;;;;;;;9.90;4.40;;;;;;;14.70;77.29;99528.37;4361849;32;33463;-77
2022/06/14 01:12:36;;;;;;;6.18;4.50;;;;;;;14.95;76.07;99528.63;4362670;32;34536;-77
2022/06/14 01:15:19;;;;;;;7.15;4.87;;;;;;;14.66;77.41;99526.72;4361283;32;34276;-77
2022/06/14 01:17:50;;;;;;;11.43;5.10;;;;;;;14.60;77.96;99519.88;4362631;32;35192;-77
2022/06/14 01:20:22;;;;;;;7.43;5.28;;;;;;;14.63;77.73;99532.94;4361040;32;34591;-80
2022/06/14 01:22:50;;;;;;;7.10;4.30;;;;;;;14.44;78.92;99527.22;4349320;32;34510;-77
2022/06/14 01:25:19;;;;;;;7.10;4.07;;;;;;;14.56;78.37;99534.78;4360347;32;35129;-76
2022/06/14 01:27:47;;;;;;;11.32;4.53;;;;;;;14.44;78.74;99529.84;4362277;32;34875;-76
2022/06/14 01:30:17;;;;;;;8.43;4.30;;;;;;;14.35;79.11;99543.16;4360106;32;33593;-77
2022/06/14 01:32:48;;;;;;;7.07;4.57;;;;;;;14.50;78.02;99537.53;4347776;32;33074;-81
2022/06/14 01:35:26;;;;;;;8.77;4.78;;;;;;;14.56;78.20;99532.19;4348473;32;35081;-77
2022/06/14 01:37:56;;;;;;;7.50;4.43;;;;;;;14.63;77.98;99547.75;4354882;32;34287;-76
2022/06/14 01:40:50;;;;;;;8.95;5.12;;;;;;;14.81;77.00;99562.19;4358449;32;32619;-76
2022/06/14 01:43:40;;;;;;;8.90;4.80;;;;;;;14.53;77.89;99557.59;4363651;32;33842;-76
2022/06/14 01:46:27;;;;;;;10.18;4.90;;;;;;;14.98;76.00;99566.13;4360648;32;34644;-76
2022/06/14 01:48:55;;;;;;;7.15;4.60;;;;;;;15.33;73.67;99566.97;4350363;32;34606;-77
2022/06/14 01:54:21;;;;;;;6.95;4.55;;;;;;;15.17;74.12;99560.41;4357264;32;34751;-76
2022/06/14 01:57:00;;;;;;;8.93;5.40;;;;;;;15.04;74.66;99564.25;4360192;32;35039;-77
2022/06/14 01:59:42;;;;;;;7.70;4.78;;;;;;;14.98;75.04;99566.13;4363872;32;34277;-76
2022/06/14 02:02:28;;;;;;;10.13;5.47;;;;;;;14.75;76.47;99568.44;4360560;32;33216;-76
2022/06/14 02:05:20;;;;;;;5.68;3.92;;;;;;;14.39;77.32;99571.84;4360629;32;34674;-76
2022/06/14 02:07:47;;;;;;;8.25;4.47;;;;;;;14.69;76.57;99571.22;4362260;32;35090;-76
2022/06/14 02:10:36;;;;;;;6.45;4.53;;;;;;;14.64;76.92;99575.72;4360230;32;35240;-77
2022/06/14 02:13:18;;;;;;;10.35;4.95;;;;;;;14.48;77.43;99577.78;4363482;32;34545;-84
2022/06/14 02:15:52;;;;;;;6.25;4.70;;;;;;;14.39;78.11;99577.09;4348559;32;33111;-84
2022/06/14 02:18:43;;;;;;;5.82;4.32;;;;;;;14.20;78.16;99575.78;4350136;32;35274;-83
2022/06/14 02:21:23;;;;;;;10.25;4.87;;;;;;;14.46;77.87;99567.34;4360832;32;34564;-76
2022/06/14 02:24:25;;;;;;;8.80;4.70;;;;;;;15.02;75.01;99566.91;4350085;32;32098;-81
2022/06/14 02:27:06;;;;;;;7.68;4.20;;;;;;;14.65;76.50;99566.94;4360697;32;32733;-76
2022/06/14 02:30:00;;;;;;;7.68;4.80;;;;;;;14.86;75.45;99566.44;4361981;32;34912;-76
2022/06/14 02:32:41;;;;;;;8.77;5.00;;;;;;;14.76;76.10;99575.41;4363182;32;34432;-76
2022/06/14 02:35:13;;;;;;;7.07;4.65;;;;;;;14.59;76.28;99574.06;4360353;32;33548;-76
2022/06/14 02:37:46;;;;;;;7.62;4.37;;;;;;;14.77;75.90;99570.16;4361965;32;34697;-76
2022/06/14 02:40:19;;;;;;;7.70;4.75;;;;;;;14.51;77.17;99568.09;4360366;32;35072;-76
2022/06/14 02:43:12;;;;;;;8.63;4.82;;;;;;;14.79;75.60;99575.34;4361762;32;34476;-76
2022/06/14 02:45:48;;;;;;;8.52;4.62;;;;;;;14.56;75.84;99578.50;4359996;32;32016;-76
2022/06/14 02:48:21;;;;;;;8.32;4.62;;;;;;;14.78;75.53;99584.09;4357537;32;33900;-77
2022/06/14 02:50:54;;;;;;;7.65;5.22;;;;;;;14.20;77.74;99581.03;4345797;32;35856;-81
2022/06/14 02:53:31;;;;;;;9.50;4.70;;;;;;;14.05;78.89;99582.22;4332035;33;34604;-81
2022/06/14 02:56:18;;;;;;;8.82;4.85;;;;;;;14.31;77.28;99596.50;4345461;32;33333;-76
2022/06/14 02:59:05;;;;;;;7.60;4.95;;;;;;;14.56;76.44;99600.31;4360181;32;33647;-77
2022/06/14 03:01:36;;;;;;;;;;;;;;;14.55;75.65;99602.97;4361423;32;34994;-77
2022/06/14 03:04:26;;;;;;;9.35;4.78;;;;;;;15.00;74.37;99605.44;4362570;32;35051;-75
2022/06/14 03:07:07;;;;;;;7.47;4.43;;;;;;;14.79;74.51;99604.19;4360718;32;34592;-75
2022/06/14 03:09:36;;;;;;;9.50;4.87;;;;;;;15.37;72.27;99609.75;4361402;32;33950;-81
2022/06/14 03:12:04;;;;;;;7.65;4.43;;;;;;;14.62;75.52;99606.34;4359740;32;35078;-76
2022/06/14 03:14:52;;;;;;;7.22;4.37;;;;;;;15.20;72.95;99602.31;4361377;32;35217;-76
2022/06/14 03:17:44;;;;;;;6.93;4.47;;;;;;;15.56;71.72;99604.84;4361341;32;34193;-75
2022/06/14 03:20:18;;;;;;;10.43;4.45;;;;;;;15.19;73.58;99605.81;4346755;32;33063;-75
2022/06/14 03:23:01;;;;;;;8.30;4.43;;;;;;;15.14;73.80;99597.19;4362437;32;35787;-75
2022/06/14 03:25:37;;;;;;;7.53;4.97;;;;;;;15.19;73.75;99595.31;4359607;32;35274;-75
2022/06/14 03:28:21;;;;;;;6.35;4.65;;;;;;;15.17;74.03;99594.50;4361152;32;33456;-75
2022/06/14 03:30:58;;;;;;;9.10;4.78;;;;;;;15.34;73.55;99605.44;4359503;32;34737;-75
2022/06/14 03:33:46;;;;;;;7.10;4.50;;;;;;;15.44;73.37;99605.19;4361098;32;35296;-78
2022/06/14 03:36:15;;;;;;;6.12;4.00;;;;;;;15.61;72.43;99607.38;4360800;32;34929;-75
2022/06/14 03:38:50;;;;;;;6.05;4.15;;;;;;;15.45;73.44;99606.91;4359727;32;35456;-75
2022/06/14 03:41:22;;;;;;;11.00;4.80;;;;;;;15.60;72.89;99603.00;4358532;32;34665;-78
2022/06/14 03:43:51;;;;;;;7.55;4.15;;;;;;;15.81;72.14;99614.72;4362031;32;34966;-81
2022/06/14 03:46:20;;;;;;;6.40;4.00;;;;;;;15.46;73.07;99620.00;4352583;32;34353;-81
2022/06/14 03:48:52;;;;;;;5.40;3.80;;;;;;;15.82;72.20;99616.44;4344729;32;32651;-84
2022/06/14 03:51:39;;;;;;;7.55;4.25;;;;;;;15.60;72.70;99627.50;4339563;32;34092;-82
2022/06/14 03:54:45;;;;;;;13.45;5.53;;;;;;;16.32;70.42;99622.00;4361638;32;35149;-81
2022/06/14 03:57:28;;;;;;;13.23;4.70;;;;;;;16.05;71.24;99632.41;4358824;32;34055;-85
2022/06/14 04:00:18;;;;;;;9.13;4.75;;;;;;;15.46;72.92;99634.84;4360716;32;34573;-81
2022/06/14 04:03:03;;;;;;;7.25;4.28;;;;;;;15.90;71.18;99638.09;4348402;32;34045;-78
2022/06/14 04:05:37;;;;;;;10.77;4.53;;;;;;;16.00;70.38;99639.56;4360225;32;35975;-86
2022/06/14 04:08:09;;;;;;;6.28;4.03;;;;;;;16.36;69.79;99639.41;4361731;32;34578;-79
2022/06/14 04:10:41;;;;;;;8.20;3.95;;;;;;;16.53;68.55;99641.53;4349069;32;34395;-78
2022/06/14 04:13:36;;;;;;;8.13;4.47;;;;;;;16.50;69.50;99641.63;4364238;32;33774;-78
2022/06/14 04:16:28;;;;;;;54.67;14.25;;;;;;;16.40;69.70;99646.28;4361655;32;35023;-85
2022/06/14 04:19:03;;;;;;;37.22;10.85;;;;;;;16.51;70.42;99653.00;4338491;32;34422;-77
2022/06/14 04:21:53;;;;;;;92.62;20.55;;;;;;;16.15;72.21;99653.16;4361644;32;33422;-81
2022/06/14 04:24:34;;;;;;;36.03;9.95;;;;;;;16.60;69.87;99652.72;4361708;32;33878;-79
2022/06/14 04:27:04;;;;;;;11.55;5.55;;;;;;;16.93;68.74;99656.09;4361112;32;34976;-81
2022/06/14 04:29:42;;;;;;;6.15;4.07;;;;;;;17.09;68.39;99661.72;4363905;32;34571;-79
2022/06/14 04:32:39;;;;;;;11.10;4.37;;;;;;;16.56;69.42;99661.62;4361428;32;34228;-78
2022/06/14 04:35:13;;;;;;;;;;;;;;;17.16;67.42;99659.78;4343864;32;34717;-79
2022/06/14 04:37:59;;;;;;;7.87;4.62;;;;;;;16.52;69.79;99667.84;4362345;32;35354;-78
2022/06/14 04:40:31;;;;;;;;;;;;;;;16.91;68.33;99675.50;4362148;32;34557;-84
2022/06/14 04:43:04;;;;;;;11.38;5.65;;;;;;;16.68;69.45;99675.25;4334692;32;34200;-78
2022/06/14 04:45:40;;;;;;;25.83;8.27;;;;;;;16.92;69.46;99675.41;4347114;32;33799;-77
2022/06/14 04:48:19;;;;;;;86.32;20.83;;;;;;;17.66;66.98;99680.03;4357540;32;35782;-77
2022/06/14 04:50:54;;;;;;;16.17;5.07;;;;;;;17.70;67.16;99686.91;4353166;32;34453;-80
2022/06/14 04:53:47;;;;;;;15.50;5.68;;;;;;;17.83;66.97;99688.22;4353464;32;33657;-80
2022/06/14 04:56:20;;;;;;;6.18;3.65;;;;;;;18.02;66.78;99699.00;4348934;32;33456;-84
2022/06/14 04:58:57;;;;;;;7.30;3.92;;;;;;;17.76;66.96;99695.47;4354202;32;35132;-84
2022/06/14 05:01:30;;;;;;;8.85;3.70;;;;;;;18.73;63.08;99694.59;4355053;32;34539;-84
2022/06/14 05:04:07;;;;;;;6.10;4.05;;;;;;;18.28;66.55;99700.72;4347576;32;33295;-83
2022/06/14 05:06:40;;;;;;;6.22;3.95;;;;;;;19.02;63.10;99704.97;4354238;32;33996;-82
2022/06/14 05:09:19;;;;;;;9.40;4.18;;;;;;;19.03;61.60;99697.00;4347850;32;33650;-81
2022/06/14 05:11:57;;;;;;;7.15;3.78;;;;;;;19.33;62.30;99702.81;4337013;32;35132;-82
2022/06/14 05:14:36;;;;;;;6.12;4.03;;;;;;;19.20;62.44;99713.94;4348152;32;33611;-84
2022/06/14 05:17:10;;;;;;;6.40;3.50;;;;;;;19.41;61.09;99713.06;4357119;32;34828;-84
2022/06/14 05:19:45;;;;;;;5.18;3.25;;;;;;;18.95;62.03;99720.19;4360866;32;35134;-83
2022/06/14 05:22:16;;;;;;;;;;;;;;;19.15;61.70;99722.06;4342812;32;34363;-78
2022/06/14 05:24:44;;;;;;;6.05;3.60;;;;;;;18.90;62.67;99716.84;4362573;32;32936;-78
2022/06/14 05:27:37;;;;;;;6.60;3.70;;;;;;;18.82;64.95;99724.22;4360784;32;33215;-79
2022/06/14 05:30:55;;;;;;;6.80;4.30;;;;;;;19.19;63.01;99720.16;4363630;32;35118;-82
2022/06/14 05:33:31;;;;;;;5.60;3.35;;;;;;;19.63;62.45;99718.31;4331804;33;34432;-76
2022/06/14 05:36:26;;;;;;;5.25;3.83;;;;;;;19.41;62.91;99721.00;4344988;32;34352;-77
2022/06/14 05:38:57;;;;;;;5.30;3.20;;;;;;;20.22;59.67;99721.09;4361840;32;34862;-81
2022/06/14 05:41:28;;;;;;;5.18;3.45;;;;;;;21.14;57.61;99716.00;4337023;32;35158;-77
2022/06/14 05:44:10;;;;;;;4.60;3.75;;;;;;;20.78;58.11;99714.19;4348579;33;34561;-77
2022/06/14 05:46:53;;;;;;;6.03;3.20;;;;;;;20.61;58.33;99718.50;4346719;32;34564;-83
2022/06/14 05:49:25;;;;;;;5.68;2.80;;;;;;;20.99;56.87;99723.75;4347441;33;34859;-82
2022/06/14 05:52:21;;;;;;;5.87;3.10;;;;;;;21.47;55.08;99716.19;4342102;32;35937;-77
2022/06/14 05:55:10;;;;;;;3.83;2.67;;;;;;;21.26;54.59;99726.00;4341795;32;34631;-77
2022/06/14 05:57:44;;;;;;;4.05;2.95;;;;;;;20.85;55.30;99723.56;4360735;32;34119;-78
2022/06/14 06:00:16;;;;;;;5.95;3.12;;;;;;;20.86;55.35;99727.94;4363382;32;33830;-77
2022/06/14 06:03:03;;;;;;;4.95;3.03;;;;;;;20.61;57.74;99728.16;4361165;32;35090;-77
2022/06/14 06:05:46;;;;;;;5.95;2.90;;;;;;;21.19;54.33;99729.88;4363229;32;34439;-82
2022/06/14 06:08:26;;;;;;;7.30;3.50;;;;;;;21.44;54.21;99734.00;4347333;32;32926;-78
2022/06/14 06:11:03;;;;;;;5.45;3.15;;;;;;;21.22;54.30;99729.75;4361775;32;33294;-82
2022/06/14 06:13:36;;;;;;;4.68;3.28;;;;;;;21.12;56.86;99734.63;4333692;33;34639;-80
2022/06/14 06:16:16;;;;;;;5.28;3.10;;;;;;;21.49;56.82;99742.59;4334352;32;34586;-77
2022/06/14 06:18:54;;;;;;;10.40;3.67;;;;;;;21.66;54.68;99739.12;4362231;32;33660;-78
2022/06/14 06:21:28;;;;;;;5.00;3.12;;;;;;;21.42;53.73;99741.16;4360373;32;33957;-77
2022/06/14 06:24:05;;;;;;;7.15;3.42;;;;;;;21.28;53.71;99742.69;4362307;32;35137;-78
2022/06/14 06:26:36;;;;;;;15.25;4.95;;;;;;;21.80;54.09;99749.87;4359596;32;32971;-77
2022/06/14 06:29:37;;;;;;;11.07;3.22;;;;;;;22.07;54.06;99744.09;4362254;32;33459;-78
2022/06/14 06:32:06;;;;;;;4.68;2.67;;;;;;;22.06;53.58;99748.56;4357969;32;33899;-78
2022/06/14 06:34:35;;;;;;;5.37;2.78;;;;;;;22.52;51.79;99748.81;4362123;32;36041;-78
2022/06/14 06:37:13;;;;;;;4.45;2.83;;;;;;;22.47;49.90;99748.19;4348749;32;35226;-77
2022/06/14 06:39:47;;;;;;;7.47;3.65;;;;;;;22.81;49.49;99751.66;4361967;32;33552;-78
2022/06/14 06:42:33;;;;;;;6.65;2.90;;;;;;;22.75;49.61;99748.50;4358803;32;33872;-78
2022/06/14 06:45:16;;;;;;;4.72;2.72;;;;;;;23.18;48.23;99749.66;4361946;32;35865;-79
2022/06/14 06:48:03;;;;;;;6.30;2.87;;;;;;;23.29;47.48;99757.03;4360531;32;33876;-76
2022/06/14 06:50:38;;;;;;;5.30;2.30;;;;;;;23.04;49.48;99749.56;4363004;32;34371;-75
2022/06/14 06:53:15;;;;;;;3.80;2.60;;;;;;;23.54;46.73;99750.28;4348281;32;34002;-76
2022/06/14 06:56:06;;;;;;;5.05;3.10;;;;;;;23.43;47.72;99759.75;4347964;33;35881;-76
2022/06/14 06:58:37;;;;;;;6.12;2.65;;;;;;;23.45;46.87;99759.66;4362403;32;34367;-76
2022/06/14 07:01:36;;;;;;;6.30;2.40;;;;;;;23.08;50.11;99757.31;4361642;32;33368;-76
2022/06/14 07:04:03;;;;;;;4.82;2.95;;;;;;;23.06;49.81;99761.81;4338927;33;34028;-76
2022/06/14 07:06:42;;;;;;;5.30;2.30;;;;;;;23.09;47.86;99756.34;4336129;32;35925;-77
2022/06/14 07:09:36;;;;;;;6.07;2.60;;;;;;;22.39;50.82;99754.84;4361906;32;35082;-76
2022/06/14 07:12:10;;;;;;;8.32;3.12;;;;;;;23.15;50.84;99757.78;4355509;32;33423;-76
2022/06/14 07:14:51;;;;;;;9.05;2.42;;;;;;;23.99;46.13;99757.41;4360301;32;33885;-76
2022/06/14 07:17:22;;;;;;;6.60;2.45;;;;;;;23.69;47.33;99759.19;4361106;32;35031;-79
2022/06/14 07:19:56;;;;;;;4.60;2.17;;;;;;;24.03;47.66;99753.59;4361572;32;33633;-81
2022/06/14 07:22:34;;;;;;;5.12;2.42;;;;;;;24.15;45.86;99756.50;4361289;32;34354;-76
2022/06/14 07:25:18;;;;;;;3.90;2.45;;;;;;;23.29;48.25;99757.03;4361590;32;34076;-75
2022/06/14 07:28:25;;;;;;;6.03;2.60;;;;;;;24.39;45.88;99760.31;4360108;32;35922;-76
2022/06/14 07:30:56;;;;;;;3.78;2.40;;;;;;;23.79;45.88;99761.22;4359299;32;35187;-76
2022/06/14 07:33:26;;;;;;;4.75;2.90;;;;;;;24.42;45.59;99765.47;4347819;32;33502;-81
2022/06/14 07:35:57;;;;;;;8.63;2.80;;;;;;;25.01;46.00;99761.84;4359855;32;33923;-76
2022/06/14 07:38:46;;;;;;;4.37;2.35;;;;;;;24.57;43.42;99757.50;4361030;32;35927;-78
2022/06/14 07:41:42;;;;;;;6.57;2.53;;;;;;;25.27;43.86;99759.31;4361069;32;35249;-76
2022/06/14 07:44:12;;;;;;;3.70;2.30;;;;;;;25.67;43.21;99764.69;4334261;33;33482;-75
2022/06/14 07:46:45;;;;;;;4.25;2.28;;;;;;;24.82;41.46;99753.31;4359571;32;33139;-76
2022/06/14 07:49:39;;;;;;;3.15;2.12;;;;;;;26.02;43.10;99761.50;4363252;32;35091;-75
2022/06/14 07:52:12;;;;;;;5.95;2.70;;;;;;;26.43;39.42;99763.09;4340679;32;34169;-76
2022/06/14 07:54:50;;;;;;;3.90;1.87;;;;;;;25.91;42.07;99762.19;4348565;33;33593;-76
2022/06/14 07:57:22;;;;;;;4.18;2.17;;;;;;;26.21;41.46;99761.94;4353550;32;34824;-76
2022/06/14 08:03:17;;;;;;;5.72;2.20;;;;;;;26.07;41.12;99756.69;4343107;32;35195;-84
2022/06/14 08:05:48;;;;;;;4.30;2.08;;;;;;;26.03;39.91;99752.50;4347164;32;34346;-81
2022/06/14 08:08:20;;;;;;;4.80;2.45;;;;;;;26.92;38.53;99759.66;4358158;32;34023;-78
2022/06/14 08:10:52;;;;;;;5.30;1.83;;;;;;;26.92;36.76;99759.66;4362929;32;35969;-76
2022/06/14 08:13:27;;;;;;;4.03;1.80;;;;;;;27.30;34.04;99764.06;4361603;32;35182;-79
2022/06/14 08:15:58;;;;;;;6.00;2.60;;;;;;;27.07;38.55;99763.03;4364286;32;33457;-82
2022/06/14 08:18:31;;;;;;;6.70;2.58;;;;;;;26.33;34.25;99762.03;4360975;32;34039;-82
2022/06/14 08:21:05;;;;;;;5.28;2.15;;;;;;;25.88;33.70;99762.41;4361528;32;35076;-80
2022/06/14 08:24:09;;;;;;;3.62;1.77;;;;;;;25.73;32.14;99762.47;4361225;32;35184;-79
2022/06/14 08:26:47;;;;;;;5.00;1.80;;;;;;;25.00;36.27;99760.13;4362597;32;33713;-82
2022/06/14 08:29:47;;;;;;;6.37;2.12;;;;;;;26.21;34.33;99753.94;4364011;32;33907;-80
2022/06/14 08:32:26;;;;;;;4.43;2.12;;;;;;;26.31;33.75;99754.12;4361338;32;35023;-81
2022/06/14 08:35:06;;;;;;;6.82;2.35;;;;;;;26.18;35.27;99759.47;4361705;32;35107;-80
2022/06/14 08:37:40;;;;;;;2.65;1.70;;;;;;;25.90;33.04;99755.97;4361130;32;33573;-82
2022/06/14 08:40:21;;;;;;;4.20;1.85;;;;;;;26.79;33.10;99759.69;4362885;32;33948;-81
2022/06/14 08:42:53;;;;;;;3.12;1.70;;;;;;;26.43;32.62;99757.75;4360976;32;35106;-75
2022/06/14 08:45:38;;;;;;;5.68;1.90;;;;;;;26.20;35.85;99762.03;4362656;32;35189;-75
2022/06/14 08:48:12;;;;;;;5.20;1.90;;;;;;;26.09;33.49;99758.28;4352385;32;33459;-81
2022/06/14 08:51:25;;;;;;;3.85;1.70;;;;;;;26.40;33.21;99757.97;4357373;32;34779;-75
2022/06/14 08:53:56;;;;;;;4.97;1.60;;;;;;;26.25;32.39;99760.75;4338436;33;35855;-81
2022/06/14 08:56:41;;;;;;;7.18;1.80;;;;;;;26.15;35.46;99754.34;4348091;33;34432;-81
2022/06/14 08:59:33;;;;;;;2.73;1.53;;;;;;;26.15;34.88;99756.16;4326491;33;33097;-82
2022/06/14 09:02:22;;;;;;;5.70;1.92;;;;;;;26.61;34.91;99766.28;4315307;33;34038;-80
2022/06/14 09:05:18;;;;;;;5.07;1.92;;;;;;;26.61;33.89;99758.28;4332997;33;35912;-80
2022/06/14 09:08:01;;;;;;;4.65;1.92;;;;;;;26.65;34.87;99760.66;4333992;33;35292;-75
2022/06/14 09:11:07;;;;;;;3.28;1.80;;;;;;;26.43;35.05;99750.59;4339098;33;33421;-76
2022/06/14 09:13:54;;;;;;;6.12;2.22;;;;;;;27.82;35.09;99763.81;4334343;33;34730;-77
2022/06/14 09:16:44;;;;;;;4.45;2.17;;;;;;;27.47;35.42;99754.78;4348770;33;34948;-75
2022/06/14 09:20:00;;;;;;;3.95;1.70;;;;;;;27.52;34.83;99754.44;4346498;33;34509;-76
2022/06/14 09:23:02;;;;;;;4.97;1.80;;;;;;;28.14;33.42;99753.31;4341308;33;36815;-75
2022/06/14 09:26:10;;;;;;;4.22;1.87;;;;;;;25.39;35.68;99749.66;4335115;33;34762;-76
2022/06/14 09:29:07;;;;;;;3.25;1.20;;;;;;;26.37;32.18;99752.88;4334059;33;35138;-75
2022/06/14 09:31:56;;;;;;;3.78;1.92;;;;;;;26.16;31.54;99745.38;4335667;33;34566;-75
2022/06/14 09:35:02;;;;;;;5.20;1.87;;;;;;;27.50;32.49;99754.56;4347416;33;33261;-75
2022/06/14 09:37:36;;;;;;;3.80;2.08;;;;;;;27.46;32.76;99752.22;4332805;33;33774;-75
2022/06/14 09:40:17;;;;;;;2.53;1.55;;;;;;;27.23;30.81;99744.91;4348886;33;34909;-76
2022/06/14 09:43:08;;;;;;;5.07;1.60;;;;;;;25.49;31.62;99746.28;4332601;33;34354;-76
2022/06/14 09:45:48;;;;;;;3.30;1.70;;;;;;;26.11;32.51;99747.50;4325677;33;33250;-75
2022/06/14 09:48:26;;;;;;;2.78;1.50;;;;;;;26.36;33.41;99746.66;4338158;33;34078;-76
2022/06/14 09:51:18;;;;;;;3.72;1.40;;;;;;;25.79;30.76;99737.19;4320732;33;35776;-76
2022/06/14 09:54:21;;;;;;;3.53;1.90;;;;;;;25.09;31.09;99742.69;4319713;33;34397;-75
2022/06/14 09:57:17;;;;;;;7.87;1.50;;;;;;;25.72;33.02;99749.25;4331990;33;33320;-76
2022/06/14 10:00:03;;;;;;;3.03;1.60;;;;;;;26.45;29.69;99740.69;4332810;33;34247;-75
2022/06/14 10:02:44;;;;;;;3.35;1.80;;;;;;;27.72;28.67;99743.06;4339939;32;35227;-76
2022/06/14 10:05:40;;;;;;;2.50;1.37;;;;;;;26.91;28.88;99744.56;4363407;32;34467;-76
2022/06/14 10:08:50;;;;;;;3.55;1.55;;;;;;;26.71;28.88;99739.81;4360869;32;33429;-76
2022/06/14 10:11:42;;;;;;;3.25;1.67;;;;;;;26.99;30.02;99731.53;4362077;32;33936;-75
2022/06/14 10:14:28;;;;;;;3.08;1.50;;;;;;;26.28;32.79;99733.84;4360918;32;35852;-76
2022/06/14 10:17:33;;;;;;;3.85;2.10;;;;;;;26.26;29.47;99741.13;4361893;32;34318;-76
2022/06/14 10:20:27;;;;;;;4.07;2.10;;;;;;;25.55;33.63;99742.34;4327149;33;33385;-75
2022/06/14 10:23:21;;;;;;;4.75;1.80;;;;;;;25.77;31.64;99733.78;4342847;32;34737;-75
2022/06/14 10:29:35;;;;;;;7.30;1.98;;;;;;;26.30;32.14;99733.75;4362143;32;35054;-75
2022/06/14 10:32:17;;;;;;;2.97;1.90;;;;;;;25.68;34.43;99718.41;4360002;32;33362;-76
2022/06/14 10:35:01;;;;;;;2.47;1.65;;;;;;;26.74;32.47;99727.09;4332558;33;34770;-75
2022/06/14 10:37:38;;;;;;;4.20;1.70;;;;;;;25.42;32.20;99721.00;4336145;32;35155;-76
2022/06/14 10:40:24;;;;;;;5.18;1.80;;;;;;;26.45;33.89;99723.78;4333650;33;34439;-81
2022/06/14 10:42:52;;;;;;;;;;;;;;;26.58;31.90;99729.97;4362322;32;33016;-75
2022/06/14 10:45:31;;;;;;;5.05;1.90;;;;;;;27.30;30.78;99721.28;4355704;32;34055;-74
2022/06/14 10:48:24;;;;;;;4.03;2.12;;;;;;;26.61;34.40;99719.13;4358394;32;34560;-78
2022/06/14 10:51:16;;;;;;;4.45;1.83;;;;;;;27.45;32.26;99702.38;4360008;32;35085;-74
2022/06/14 10:54:06;;;;;;;3.78;1.70;;;;;;;27.46;30.30;99720.13;4360157;32;33465;-75
2022/06/14 10:56:56;;;;;;;3.75;1.80;;;;;;;27.28;29.62;99717.84;4361095;32;34824;-73
2022/06/14 10:59:55;;;;;;;2.87;1.70;;;;;;;26.40;32.10;99718.78;4360525;32;35906;-74
2022/06/14 11:02:42;;;;;;;4.68;1.70;;;;;;;25.26;31.52;99717.63;4347924;32;33650;-74
2022/06/14 11:05:21;;;;;;;7.43;2.30;;;;;;;24.72;33.11;99705.09;4361490;32;33633;-74
2022/06/14 11:08:14;;;;;;;3.60;1.83;;;;;;;25.64;34.92;99714.22;4359908;32;33942;-74
2022/06/14 11:10:51;;;;;;;5.82;2.00;;;;;;;25.75;33.34;99709.03;4361055;32;35004;-75
2022/06/14 11:13:43;;;;;;;3.90;2.15;;;;;;;26.41;33.11;99703.63;4361103;32;34637;-74
2022/06/14 11:16:30;;;;;;;6.65;2.10;;;;;;;25.82;32.36;99712.09;4360780;32;34505;-73
2022/06/14 11:19:31;;;;;;;3.67;1.70;;;;;;;24.83;34.34;99712.37;4361251;32;34011;-75
2022/06/14 11:22:13;;;;;;;5.15;2.17;;;;;;;25.23;34.57;99715.12;4360528;32;35292;-74
2022/06/14 11:25:08;;;;;;;4.65;1.83;;;;;;;24.91;33.45;99710.09;4363037;32;35067;-75
2022/06/14 11:27:53;;;;;;;7.55;1.67;;;;;;;25.27;36.14;99714.00;4361850;32;33418;-74
2022/06/14 11:31:03;;;;;;;4.62;1.95;;;;;;;25.00;35.36;99716.63;4362684;32;34063;-74
2022/06/14 11:34:06;;;;;;;4.62;1.90;;;;;;;24.64;34.13;99720.72;4329254;33;35194;-74
2022/06/14 11:37:22;;;;;;;6.15;2.05;;;;;;;24.06;33.92;99712.69;4344268;32;34434;-74
2022/06/14 11:40:13;;;;;;;4.32;2.00;;;;;;;24.48;34.89;99710.09;4354856;32;33435;-75
2022/06/14 11:43:06;;;;;;;4.75;1.90;;;;;;;25.62;34.40;99716.12;4361020;32;34086;-74
2022/06/14 11:45:57;;;;;;;6.78;2.33;;;;;;;25.99;32.20;99711.00;4361573;32;35034;-75
2022/06/14 11:48:43;;;;;;;4.47;1.77;;;;;;;25.86;33.50;99717.13;4333491;33;34575;-74
2022/06/14 11:51:24;;;;;;;5.43;3.10;;;;;;;26.15;33.52;99718.78;4337519;32;34142;-74
2022/06/14 11:54:03;;;;;;;7.37;2.20;;;;;;;25.44;33.15;99718.22;4364122;32;34601;-80
2022/06/14 11:56:34;;;;;;;6.47;2.15;;;;;;;25.28;34.01;99724.56;4357964;32;36031;-82
2022/06/14 11:59:19;;;;;;;4.47;1.75;;;;;;;24.60;35.12;99725.34;4348319;33;34359;-74
2022/06/14 12:02:04;;;;;;;2.95;1.95;;;;;;;24.44;36.06;99724.56;4355019;32;34326;-75
2022/06/14 12:04:59;;;;;;;2.83;1.58;;;;;;;24.52;35.97;99716.97;4363215;32;33958;-75
2022/06/14 12:07:37;;;;;;;3.62;2.85;;;;;;;25.24;34.98;99715.03;4349519;32;35185;-75
2022/06/14 12:10:24;;;;;;;6.80;2.37;;;;;;;24.38;34.55;99715.16;4363473;32;35158;-74
2022/06/14 12:12:55;;;;;;;;;;;;;;;24.46;35.23;99712.88;4363001;32;33661;-75
2022/06/14 12:15:54;;;;;;;3.30;1.95;;;;;;;24.75;34.90;99697.75;4362911;32;33687;-75
2022/06/14 12:18:26;;;;;;;2.92;1.87;;;;;;;25.15;37.02;99707.66;4354732;32;35893;-75
2022/06/14 12:21:30;;;;;;;4.20;2.00;;;;;;;25.70;35.66;99690.66;4362419;32;34572;-75
2022/06/14 12:24:03;;;;;;;5.03;1.80;;;;;;;26.18;31.80;99698.09;4363090;32;33400;-75
2022/06/14 12:26:51;;;;;;;4.10;1.83;;;;;;;25.66;32.13;99688.28;4361481;32;34264;-76
2022/06/14 12:29:26;;;;;;;3.92;1.70;;;;;;;26.52;31.42;99698.34;4363373;32;35871;-78
2022/06/14 12:32:16;;;;;;;3.53;2.23;;;;;;;25.57;32.08;99688.94;4348101;32;33739;-75
2022/06/14 12:34:44;;;;;;;3.12;1.87;;;;;;;25.58;32.69;99688.81;4362650;32;33562;-75
2022/06/14 12:37:32;;;;;;;3.33;1.85;;;;;;;25.59;32.72;99692.34;4361524;32;34752;-76
2022/06/14 12:40:19;;;;;;;3.83;2.00;;;;;;;24.91;33.50;99689.63;4363025;32;34984;-75
2022/06/14 12:43:05;;;;;;;4.05;2.20;;;;;;;24.31;34.57;99696.06;4362571;32;35082;-75
2022/06/14 12:45:41;;;;;;;3.50;2.05;;;;;;;24.51;36.56;99699.28;4364068;32;34129;-75
2022/06/14 12:48:39;;;;;;;4.12;2.30;;;;;;;24.58;34.93;99684.66;4361497;32;34771;-74
2022/06/14 12:51:28;;;;;;;4.57;1.70;;;;;;;24.18;34.37;99692.47;4333328;33;35196;-77